Time;durP1;ratioP1;P1;durP2;ratioP2;P2;SDS_P1;SDS_P2;PMS_P1;PMS_P2;Temp;Humidity;BMP_temperature;BMP_pressure;BME280_temperature;BME280_humidity;BME280_pressure;Samples;Min_cycle;Max_cycle;Signal;HPM_P1;HPM_P2
2023/11/08 00:02:02;;;;;;;1.07;0.80;;;;;;;-141.84;80.93;19378.94;4984276;28;20309;-62
2023/11/08 00:04:30;;;;;;;0.97;0.80;;;;;;;-141.84;82.31;19441.94;5002251;28;20582;-62
2023/11/08 00:07:00;;;;;;;1.03;0.83;;;;;;;-141.84;83.54;19439.91;4993748;28;20294;-63
2023/11/08 00:09:29;;;;;;;1.60;1.10;;;;;;;-141.84;82.01;19439.91;4980724;28;20231;-64
2023/11/08 00:11:57;;;;;;;1.07;0.87;;;;;;;-141.84;83.02;19415.50;4980003;28;20307;-61
2023/11/08 00:14:26;;;;;;;0.80;0.80;;;;;;;-141.84;83.45;19429.75;4982277;28;20231;-62
2023/11/08 00:17:01;;;;;;;1.53;0.93;;;;;;;-141.84;83.05;19452.09;4982833;28;20750;-62
2023/11/08 00:19:29;;;;;;;2.23;0.80;;;;;;;-141.84;81.61;19399.25;4978505;28;20612;-63
2023/11/08 00:21:59;;;;;;;0.70;0.70;;;;;;;-141.84;83.25;19441.94;4982256;28;20235;-61
2023/11/08 00:24:28;;;;;;;0.83;0.80;;;;;;;-141.84;83.40;19435.84;4982853;28;20237;-62
2023/11/08 00:26:56;;;;;;;2.10;1.10;;;;;;;-141.84;84.39;19492.75;4983254;28;20256;-63
2023/11/08 00:29:25;;;;;;;0.87;0.87;;;;;;;-141.84;85.23;19553.72;4980652;28;20273;-62
2023/11/08 00:31:53;;;;;;;1.43;0.87;;;;;;;-141.84;86.12;19632.97;4964505;28;20733;-62
2023/11/08 00:34:22;;;;;;;1.27;0.90;;;;;;;-141.84;86.57;19574.03;4982229;28;20314;-62
2023/11/08 00:36:53;;;;;;;1.67;1.00;;;;;;;-141.84;87.33;19712.22;4982246;28;20239;-62
2023/11/08 00:39:23;;;;;;;1.53;0.80;;;;;;;-141.84;87.69;19742.72;4982290;28;20204;-62
2023/11/08 00:41:51;;;;;;;1.30;0.90;;;;;;;-141.84;88.90;19895.13;4975764;28;20465;-63
2023/11/08 00:44:21;;;;;;;1.03;0.90;;;;;;;-141.84;87.27;19710.19;4982183;28;20265;-62
2023/11/08 00:46:50;;;;;;;1.83;0.90;;;;;;;-141.84;88.38;19866.69;4982512;28;20231;-62
2023/11/08 00:49:19;;;;;;;2.00;1.10;;;;;;;-141.84;87.85;19787.41;4981965;28;20330;-62
2023/11/08 00:51:48;;;;;;;1.00;0.90;;;;;;;-141.84;87.57;19787.41;4974631;28;20239;-62
2023/11/08 00:54:17;;;;;;;1.30;0.90;;;;;;;-141.84;87.74;19813.84;4982738;28;20207;-63
2023/11/08 00:56:47;;;;;;;1.37;1.10;;;;;;;-141.84;87.92;19803.69;4982820;28;20674;-62
2023/11/08 00:59:16;;;;;;;1.37;1.07;;;;;;;-141.84;88.60;19911.41;4982145;28;20618;-61
2023/11/08 01:01:44;;;;;;;1.00;0.90;;;;;;;-141.84;87.98;19789.44;4973599;28;20227;-62
2023/11/08 01:04:13;;;;;;;2.50;1.13;;;;;;;-141.84;88.56;19903.25;4985048;28;20290;-61
2023/11/08 01:06:42;;;;;;;2.10;0.90;;;;;;;-141.84;87.85;19821.97;4985753;28;20231;-63
2023/11/08 01:09:15;;;;;;;1.93;1.20;;;;;;;-141.84;87.58;19771.16;4986238;28;20242;-62
2023/11/08 01:11:44;;;;;;;1.73;0.90;;;;;;;-141.84;87.94;19781.31;4978285;28;20215;-61
2023/11/08 01:14:14;;;;;;;1.07;0.97;;;;;;;-141.84;85.15;19557.78;4985993;28;20265;-62
2023/11/08 01:16:43;;;;;;;0.97;0.87;;;;;;;-141.84;85.95;19594.34;4985522;28;20750;-62
2023/11/08 01:19:11;;;;;;;1.00;0.97;;;;;;;-141.84;84.67;19517.13;4984726;28;20241;-62
2023/11/08 01:21:40;;;;;;;2.73;1.00;;;;;;;-141.84;84.03;19464.28;4977786;28;20231;-62
2023/11/08 01:24:22;;;;;;;2.90;1.10;;;;;;;-141.84;84.72;19517.13;4985717;28;20207;-62
2023/11/08 01:26:51;;;;;;;2.30;1.30;;;;;;;-141.84;84.29;19515.09;4975064;28;20215;-61
2023/11/08 01:29:21;;;;;;;2.30;1.20;;;;;;;-141.84;82.23;19427.72;4972895;28;20223;-62
2023/11/08 01:31:49;;;;;;;1.90;1.17;;;;;;;-141.84;84.06;19450.06;4977112;28;20618;-62
2023/11/08 01:34:19;;;;;;;1.33;1.10;;;;;;;-141.84;83.82;19482.56;4985411;28;20710;-62
2023/11/08 01:36:54;;;;;;;1.73;0.97;;;;;;;-141.84;84.74;19517.13;4985591;28;20235;-63
2023/11/08 01:39:23;;;;;;;3.07;0.90;;;;;;;-141.84;86.32;19606.53;4985892;28;20239;-62
2023/11/08 01:41:52;;;;;;;1.20;1.10;;;;;;;-141.84;85.01;19502.91;4978043;28;20246;-62
2023/11/08 01:44:22;;;;;;;3.97;1.20;;;;;;;-141.84;86.18;19608.56;4986420;28;20247;-62
2023/11/08 01:46:54;;;;;;;1.13;1.00;;;;;;;-141.84;87.76;19724.41;4986860;28;20238;-62
2023/11/08 01:49:23;;;;;;;2.60;1.13;;;;;;;-141.84;88.15;19850.41;4979508;28;20224;-62
2023/11/08 01:51:52;;;;;;;3.03;1.00;;;;;;;-141.84;86.97;19708.16;4994788;28;20236;-60
2023/11/08 01:54:45;;;;;;;1.17;1.00;;;;;;;-141.84;87.54;19728.47;5004736;28;20234;-62
2023/11/08 01:57:15;;;;;;;1.20;1.10;;;;;;;-141.84;86.98;19710.19;5004451;28;20297;-62
2023/11/08 01:59:46;;;;;;;1.73;1.20;;;;;;;-141.84;87.76;19769.13;4987371;28;20253;-64
2023/11/08 02:02:15;;;;;;;1.50;1.20;;;;;;;-141.84;86.25;19630.94;4989060;28;20714;-62
2023/11/08 02:04:43;;;;;;;3.43;1.80;;;;;;;-141.84;87.33;19716.28;5004191;28;20270;-62
2023/11/08 02:07:12;;;;;;;1.57;1.30;;;;;;;-141.84;88.88;19990.66;4993862;28;20262;-62
2023/11/08 02:09:41;;;;;;;2.80;1.47;;;;;;;-141.84;86.53;19685.81;4977329;28;20560;-62
2023/11/08 02:12:10;;;;;;;2.33;1.60;;;;;;;-141.84;87.71;19807.75;4984970;28;20227;-62
2023/11/08 02:15:00;;;;;;;3.10;1.40;;;;;;;-141.84;87.45;19750.84;4984380;28;20223;-62
2023/11/08 02:17:28;;;;;;;2.57;1.40;;;;;;;-141.84;87.60;19789.44;4973297;28;20282;-62
2023/11/08 02:19:57;;;;;;;1.77;1.33;;;;;;;-141.84;88.21;19880.91;4983845;28;20239;-62
2023/11/08 02:22:39;;;;;;;1.97;1.20;;;;;;;-141.84;88.37;19856.53;4984307;28;20806;-61
2023/11/08 02:25:11;;;;;;;2.70;1.33;;;;;;;-141.84;86.17;19647.19;4984761;28;20251;-61
2023/11/08 02:27:46;;;;;;;1.67;1.30;;;;;;;-141.84;86.10;19635.00;4976349;28;20247;-62
2023/11/08 02:30:14;;;;;;;2.57;1.20;;;;;;;-141.84;85.94;19598.41;4984286;28;20222;-60
2023/11/08 02:32:43;;;;;;;2.53;1.30;;;;;;;-141.84;84.38;19460.22;4984606;28;20753;-62
2023/11/08 02:35:12;;;;;;;1.80;1.20;;;;;;;-141.84;83.93;19478.50;4983968;28;20314;-62
2023/11/08 02:37:41;;;;;;;2.40;1.30;;;;;;;-141.84;83.68;19456.16;4976269;28;20235;-62
2023/11/08 02:40:14;;;;;;;2.90;1.10;;;;;;;-141.84;85.67;19563.88;4984386;28;20277;-62
2023/11/08 02:42:43;;;;;;;4.40;1.70;;;;;;;-141.84;86.96;19687.84;4984165;28;20251;-61
2023/11/08 02:45:12;;;;;;;1.87;1.23;;;;;;;-141.84;87.95;19803.69;4984154;28;20241;-62
2023/11/08 02:47:41;;;;;;;2.97;1.40;;;;;;;-141.84;85.31;19616.72;4976758;28;20245;-63
2023/11/08 02:50:11;;;;;;;3.50;1.60;;;;;;;-141.84;84.90;19535.41;4983460;28;20290;-62
2023/11/08 02:52:39;;;;;;;3.43;1.23;;;;;;;-141.84;86.46;19643.13;4983641;28;20231;-62
2023/11/08 02:55:11;;;;;;;3.33;1.40;;;;;;;-141.84;85.32;19553.72;4983767;28;20797;-62
2023/11/08 02:57:42;;;;;;;2.67;1.40;;;;;;;-141.84;85.84;19602.47;4976376;28;20255;-63
2023/11/08 03:00:25;;;;;;;2.60;1.30;;;;;;;-141.84;85.37;19606.53;4983484;28;20211;-63
2023/11/08 03:02:57;;;;;;;2.20;1.50;;;;;;;-141.84;84.01;19480.53;4967385;28;20207;-62
2023/11/08 03:05:27;;;;;;;3.67;1.30;;;;;;;-141.84;83.84;19437.88;4983876;28;20227;-62
2023/11/08 03:07:56;;;;;;;3.00;1.40;;;;;;;-141.84;83.98;19500.88;4982525;28;20224;-62
2023/11/08 03:10:26;;;;;;;2.87;1.30;;;;;;;-141.84;83.36;19480.53;4983672;28;20405;-64
2023/11/08 03:12:55;;;;;;;2.83;1.20;;;;;;;-141.84;82.92;19431.78;4983752;28;20768;-61
2023/11/08 03:15:24;;;;;;;1.97;1.30;;;;;;;-141.84;82.55;19421.63;4983555;28;20242;-63
2023/11/08 03:17:53;;;;;;;2.30;1.20;;;;;;;-141.84;83.96;19506.97;4967617;28;20245;-62
2023/11/08 03:20:22;;;;;;;2.17;1.00;;;;;;;-141.84;81.47;19403.31;4983525;28;20293;-61
2023/11/08 03:23:05;;;;;;;1.43;1.00;;;;;;;-141.84;81.66;19374.88;4983887;28;20231;-62
2023/11/08 03:25:35;;;;;;;1.10;1.00;;;;;;;-141.84;83.63;19448.03;4976742;28;20299;-62
2023/11/08 03:28:04;;;;;;;2.40;1.17;;;;;;;-141.84;84.37;19484.59;4983850;28;20254;-62
2023/11/08 03:30:32;;;;;;;1.63;1.00;;;;;;;-141.84;83.16;19439.91;4983724;28;20298;-62
2023/11/08 03:33:01;;;;;;;1.07;0.90;;;;;;;-141.84;81.58;19383.00;4983933;28;20593;-62
2023/11/08 03:35:30;;;;;;;1.23;0.90;;;;;;;-141.84;82.17;19385.03;4979169;28;20371;-62
2023/11/08 03:38:07;;;;;;;2.20;1.10;;;;;;;-141.84;84.57;19454.13;4983287;28;20258;-62
2023/11/08 03:40:37;;;;;;;2.10;1.03;;;;;;;-141.84;84.80;19484.59;4983285;28;20349;-64
2023/11/08 03:43:06;;;;;;;1.87;1.20;;;;;;;-141.84;85.38;19555.75;4978454;28;20235;-62
2023/11/08 03:45:34;;;;;;;1.80;1.10;;;;;;;-141.84;83.98;19431.78;4967873;28;20253;-62
2023/11/08 03:48:03;;;;;;;1.50;0.97;;;;;;;-141.84;85.36;19478.50;4983920;28;20211;-62
2023/11/08 03:50:32;;;;;;;1.10;0.90;;;;;;;-141.84;87.33;19673.59;4974224;28;20226;-62
2023/11/08 03:53:00;;;;;;;2.43;1.30;;;;;;;-141.84;85.90;19525.25;4985654;28;20227;-61
2023/11/08 03:55:29;;;;;;;1.30;1.00;;;;;;;-141.84;84.56;19458.19;4980321;28;20235;-62
2023/11/08 03:58:03;;;;;;;3.20;1.20;;;;;;;-141.84;84.77;19448.03;4999126;28;20254;-61
2023/11/08 04:00:32;;;;;;;2.40;1.00;;;;;;;-141.84;84.65;19458.19;4985491;28;20233;-64
2023/11/08 04:03:00;;;;;;;0.90;0.87;;;;;;;-141.84;84.78;19435.84;4983257;28;20208;-61
2023/11/08 04:05:30;;;;;;;1.23;0.90;;;;;;;-141.84;84.78;19492.75;4979480;28;20227;-61
2023/11/08 04:07:59;;;;;;;1.20;0.80;;;;;;;-141.84;85.23;19541.50;4982338;28;20227;-62
2023/11/08 04:10:28;;;;;;;0.70;0.70;;;;;;;-141.84;85.24;19476.47;5002129;28;20268;-62
2023/11/08 04:12:58;;;;;;;2.23;0.97;;;;;;;-141.84;85.87;19576.06;4986172;28;20294;-62
2023/11/08 04:15:26;;;;;;;1.47;0.80;;;;;;;-141.84;84.97;19523.22;4963363;28;20279;-62
2023/11/08 04:17:55;;;;;;;1.03;0.77;;;;;;;-141.84;84.42;19472.41;4965460;28;20222;-63
2023/11/08 04:20:26;;;;;;;1.80;1.00;;;;;;;-141.84;83.40;19437.88;4982101;28;20242;-63
2023/11/08 04:22:54;;;;;;;1.23;0.80;;;;;;;-141.84;83.49;19419.59;4982303;28;20330;-62
2023/11/08 04:25:23;;;;;;;2.13;0.90;;;;;;;-141.84;83.87;19437.88;4982633;28;20235;-61
2023/11/08 04:27:51;;;;;;;1.10;0.70;;;;;;;-141.84;83.44;19421.63;4974894;28;20239;-62
2023/11/08 04:30:21;;;;;;;3.03;1.10;;;;;;;-141.84;83.57;19433.81;4982434;28;20207;-63
2023/11/08 04:32:50;;;;;;;2.00;0.80;;;;;;;-141.84;84.25;19429.75;4983056;28;20299;-62
2023/11/08 04:35:18;;;;;;;1.27;1.00;;;;;;;-141.84;83.45;19423.66;4982470;28;20234;-61
2023/11/08 04:37:47;;;;;;;1.67;0.80;;;;;;;-141.84;83.55;19417.56;4974771;28;20809;-62
2023/11/08 04:40:31;;;;;;;1.63;0.70;;;;;;;-141.84;83.22;19421.63;4986427;28;20714;-62
2023/11/08 04:43:00;;;;;;;1.33;1.00;;;;;;;-141.84;85.78;19537.44;4986347;28;20314;-63
2023/11/08 04:45:30;;;;;;;1.70;0.90;;;;;;;-141.84;84.75;19511.03;4984314;28;20767;-61
2023/11/08 04:47:58;;;;;;;7.67;6.40;;;;;;;-141.84;83.45;19409.41;4986755;28;20690;-63
2023/11/08 04:50:27;;;;;;;1.20;0.90;;;;;;;-141.84;84.81;19492.75;4971596;28;20231;-61
2023/11/08 04:52:56;;;;;;;1.50;1.00;;;;;;;-141.84;84.15;19500.88;4966815;28;20267;-61
2023/11/08 04:55:24;;;;;;;2.03;1.00;;;;;;;-141.84;83.33;19450.06;4971943;28;20223;-61
2023/11/08 04:57:53;;;;;;;1.80;1.00;;;;;;;-141.84;83.00;19423.66;4978858;28;20710;-62
2023/11/08 05:00:21;;;;;;;2.03;1.03;;;;;;;-141.84;84.57;19464.28;4986100;28;20212;-62
2023/11/08 05:02:51;;;;;;;1.33;1.00;;;;;;;-141.84;85.29;19517.13;4986663;28;20207;-62
2023/11/08 05:05:20;;;;;;;2.20;1.13;;;;;;;-141.84;85.71;19519.16;4985466;28;20235;-63
2023/11/08 05:07:51;;;;;;;2.10;1.00;;;;;;;-141.84;85.89;19561.84;4978032;28;20666;-61
2023/11/08 05:10:19;;;;;;;1.20;1.10;;;;;;;-141.84;85.22;19539.47;4985265;28;20243;-62
2023/11/08 05:12:48;;;;;;;1.33;1.00;;;;;;;-141.84;86.41;19574.03;4985555;28;20293;-62
2023/11/08 05:15:17;;;;;;;2.50;1.03;;;;;;;-141.84;86.90;19647.19;4985599;28;20274;-63
2023/11/08 05:17:46;;;;;;;3.60;1.17;;;;;;;-141.84;86.07;19610.59;4968938;28;20234;-62
2023/11/08 05:20:16;;;;;;;1.67;1.00;;;;;;;-141.84;86.50;19610.59;4985173;28;20235;-61
2023/11/08 05:22:45;;;;;;;1.20;1.10;;;;;;;-141.84;85.92;19574.03;4985795;28;20235;-62
2023/11/08 05:25:14;;;;;;;1.67;1.00;;;;;;;-141.84;85.41;19545.56;4985163;28;20237;-62
2023/11/08 05:27:44;;;;;;;3.07;1.83;;;;;;;-141.84;85.55;19513.06;4977247;28;20792;-63
2023/11/08 05:30:15;;;;;;;3.63;1.50;;;;;;;-141.84;84.53;19498.84;4985486;28;20683;-61
2023/11/08 05:32:44;;;;;;;1.50;1.40;;;;;;;-141.84;85.17;19545.56;4986211;28;20282;-63
2023/11/08 05:35:14;;;;;;;4.03;1.40;;;;;;;-141.84;86.22;19576.06;4985083;28;20719;-63
2023/11/08 05:37:43;;;;;;;3.17;1.20;;;;;;;-141.84;85.07;19539.47;4977353;28;20672;-62
2023/11/08 05:40:26;;;;;;;2.07;1.50;;;;;;;-141.84;85.38;19509.00;4985381;28;20318;-62
2023/11/08 05:42:54;;;;;;;1.30;1.10;;;;;;;-141.84;84.72;19498.84;4985160;28;20318;-61
2023/11/08 05:45:23;;;;;;;2.40;1.30;;;;;;;-141.84;83.39;19427.72;4984863;28;20226;-63
2023/11/08 05:47:51;;;;;;;1.90;1.00;;;;;;;-141.84;85.75;19553.72;4978351;28;20313;-61
2023/11/08 05:50:21;;;;;;;1.53;0.90;;;;;;;-141.84;84.97;19525.25;4970916;28;20277;-62
2023/11/08 05:52:52;;;;;;;2.20;1.17;;;;;;;-141.84;84.37;19476.47;4980555;28;20282;-63
2023/11/08 05:55:21;;;;;;;1.63;1.30;;;;;;;-141.84;84.55;19460.22;4984259;28;20235;-63
2023/11/08 05:57:49;;;;;;;2.60;1.00;;;;;;;-141.84;85.48;19551.69;4976312;28;20850;-61
2023/11/08 06:00:20;;;;;;;3.87;1.37;;;;;;;-141.84;84.69;19506.97;4985593;28;20234;-62
2023/11/08 06:02:49;;;;;;;2.20;1.23;;;;;;;-141.84;84.09;19472.41;4996116;28;20207;-62
2023/11/08 06:05:18;;;;;;;2.97;2.07;;;;;;;-141.84;83.77;19468.34;4985106;28;20245;-62
2023/11/08 06:07:48;;;;;;;2.20;1.83;;;;;;;-141.84;84.28;19490.72;4990230;28;20605;-62
2023/11/08 06:10:31;;;;;;;1.53;1.40;;;;;;;-141.84;82.90;19391.13;4999001;28;20223;-62
2023/11/08 06:12:59;;;;;;;2.70;1.10;;;;;;;-141.84;81.85;19415.50;4984321;28;20243;-61
2023/11/08 06:15:29;;;;;;;2.00;1.30;;;;;;;-141.84;81.55;19328.13;4983489;28;20250;-62
2023/11/08 06:17:58;;;;;;;1.57;1.00;;;;;;;-141.84;84.07;19456.16;4972141;28;20728;-62
2023/11/08 06:20:27;;;;;;;1.73;1.10;;;;;;;-141.84;84.03;19488.69;5001322;28;20676;-63
2023/11/08 06:22:56;;;;;;;1.00;0.90;;;;;;;-141.84;83.95;19456.16;5003929;28;20318;-62
2023/11/08 06:25:25;;;;;;;2.00;1.20;;;;;;;-141.84;81.99;19399.25;5003831;28;20258;-62
2023/11/08 06:27:53;;;;;;;1.53;0.90;;;;;;;-141.84;83.04;19415.50;4996755;28;20325;-62
2023/11/08 06:30:21;;;;;;;1.30;1.07;;;;;;;-141.84;81.43;19370.81;5004427;28;20211;-62
2023/11/08 06:32:50;;;;;;;1.97;1.20;;;;;;;-141.84;81.48;19368.78;5004583;28;20265;-62
2023/11/08 06:35:40;;;;;;;1.87;1.00;;;;;;;-141.84;80.64;19366.75;5003744;28;20248;-61
2023/11/08 06:38:10;;;;;;;2.40;1.20;;;;;;;-141.84;81.24;19370.81;5003454;28;20277;-63
2023/11/08 06:40:39;;;;;;;3.63;0.90;;;;;;;-141.84;79.94;19344.41;5003477;28;20285;-62
2023/11/08 06:43:08;;;;;;;4.73;1.03;;;;;;;-141.84;79.93;19334.22;4984569;28;20228;-62
2023/11/08 06:45:36;;;;;;;1.90;1.00;;;;;;;-141.84;81.05;19356.59;4956382;28;20266;-62
2023/11/08 06:48:06;;;;;;;2.03;0.90;;;;;;;-141.84;79.84;19315.94;4972570;28;20238;-62
2023/11/08 06:50:35;;;;;;;1.87;1.30;;;;;;;-141.84;78.55;19301.72;4968932;28;20295;-62
2023/11/08 06:53:03;;;;;;;2.33;1.00;;;;;;;-141.84;77.75;19320.00;4964539;28;20236;-62
2023/11/08 06:55:33;;;;;;;1.67;1.20;;;;;;;-141.84;78.26;19301.72;4968448;28;20259;-63
2023/11/08 06:58:08;;;;;;;4.00;1.03;;;;;;;-141.84;77.14;19309.84;4984653;28;20235;-62
2023/11/08 07:00:37;;;;;;;2.50;1.03;;;;;;;-141.84;76.33;19297.66;4983397;28;20627;-62
2023/11/08 07:03:13;;;;;;;1.40;1.10;;;;;;;-141.84;75.75;19301.72;4984414;28;20674;-62
2023/11/08 07:05:59;;;;;;;0.83;0.73;;;;;;;-141.84;75.55;19301.72;4976496;28;20694;-62
2023/11/08 07:08:28;;;;;;;1.83;0.90;;;;;;;-141.84;75.47;19313.91;4983352;28;20235;-62
2023/11/08 07:10:58;;;;;;;1.67;0.90;;;;;;;-141.84;74.84;19297.66;4983584;28;20235;-62
2023/11/08 07:13:26;;;;;;;2.27;0.97;;;;;;;-141.84;75.06;19295.63;4983175;28;20253;-63
2023/11/08 07:15:55;;;;;;;1.30;1.00;;;;;;;-141.84;75.37;19313.91;4983419;28;20297;-62
2023/11/08 07:18:23;;;;;;;1.63;1.00;;;;;;;-141.84;74.38;19324.06;4974178;28;20223;-62
2023/11/08 07:20:52;;;;;;;4.20;0.87;;;;;;;-141.84;73.23;19285.47;4983634;28;20243;-62
2023/11/08 07:23:22;;;;;;;1.30;0.93;;;;;;;-141.84;74.94;19317.97;4983371;28;20376;-61
2023/11/08 07:25:51;;;;;;;2.10;1.00;;;;;;;-141.84;74.64;19250.91;4985995;28;20329;-63
2023/11/08 07:28:21;;;;;;;1.50;0.93;;;;;;;-141.84;74.64;19311.88;4985128;28;20235;-61
2023/11/08 07:30:49;;;;;;;1.10;0.90;;;;;;;-141.84;74.35;19315.94;4983588;28;20258;-61
2023/11/08 07:33:18;;;;;;;1.53;0.90;;;;;;;-141.84;74.24;19291.56;4983196;28;20222;-60
2023/11/08 07:35:47;;;;;;;2.77;1.00;;;;;;;-141.84;75.25;19299.69;4980897;28;20220;-61
2023/11/08 07:38:15;;;;;;;2.13;1.10;;;;;;;-141.84;74.95;19336.25;4984790;28;20509;-61
2023/11/08 07:40:44;;;;;;;1.57;1.00;;;;;;;-141.84;74.86;19273.28;4991435;28;20288;-61
2023/11/08 07:43:29;;;;;;;4.17;1.10;;;;;;;-141.84;76.15;19346.44;4982265;28;20270;-61
2023/11/08 07:46:08;;;;;;;2.83;1.40;;;;;;;-141.84;73.89;19330.16;4993425;28;20270;-61
2023/11/08 07:48:36;;;;;;;2.90;1.00;;;;;;;-141.84;74.13;19330.16;5003063;28;20461;-61
2023/11/08 07:51:08;;;;;;;1.10;0.83;;;;;;;-141.84;73.27;19281.41;4983148;28;20706;-60
2023/11/08 07:53:36;;;;;;;2.07;1.10;;;;;;;-141.84;73.95;19330.16;4975205;28;20314;-63
2023/11/08 07:56:07;;;;;;;4.27;1.30;;;;;;;-141.84;75.45;19297.66;4982345;28;20238;-61
2023/11/08 07:58:37;;;;;;;3.50;1.50;;;;;;;-141.84;73.64;19309.84;4979991;28;20227;-63
2023/11/08 08:01:06;;;;;;;2.27;1.30;;;;;;;-141.84;74.74;19307.81;4979090;28;20302;-61
2023/11/08 08:03:35;;;;;;;3.17;1.70;;;;;;;-141.84;75.40;19311.88;4974237;28;20550;-62
2023/11/08 08:06:04;;;;;;;2.53;1.40;;;;;;;-141.84;75.17;19324.06;4985062;28;20203;-62
2023/11/08 08:08:44;;;;;;;2.63;1.40;;;;;;;-141.84;76.40;19309.84;4996437;28;20679;-62
2023/11/08 08:11:13;;;;;;;2.53;1.20;;;;;;;-141.84;75.09;19281.41;4982470;28;20258;-63
2023/11/08 08:13:43;;;;;;;2.63;1.20;;;;;;;-141.84;75.75;19299.69;4959831;28;20735;-63
2023/11/08 08:16:12;;;;;;;1.93;1.20;;;;;;;-141.84;76.42;19317.97;4962799;28;20252;-62
2023/11/08 08:18:45;;;;;;;4.03;1.30;;;;;;;-141.84;76.74;19342.34;4980801;28;20714;-62
2023/11/08 08:21:14;;;;;;;3.50;1.10;;;;;;;-141.84;76.81;19309.84;4995119;28;20214;-64
2023/11/08 08:23:42;;;;;;;3.87;1.37;;;;;;;-141.84;76.52;19301.72;4978135;28;20265;-63
2023/11/08 08:26:22;;;;;;;3.23;1.50;;;;;;;-141.84;78.01;19334.22;4982354;28;20241;-64
2023/11/08 08:28:52;;;;;;;2.47;1.40;;;;;;;-141.84;77.42;19320.00;4981635;28;20714;-63
2023/11/08 08:31:20;;;;;;;2.43;1.20;;;;;;;-141.84;77.16;19338.28;4982056;28;20713;-62
2023/11/08 08:33:50;;;;;;;1.43;1.23;;;;;;;-141.84;77.25;19348.47;4973849;28;20345;-62
2023/11/08 08:36:18;;;;;;;1.53;1.23;;;;;;;-141.84;76.23;19344.41;4979972;28;20274;-62
2023/11/08 08:39:07;;;;;;;3.10;2.07;;;;;;;-141.84;75.79;19338.28;4971250;28;20298;-62
2023/11/08 08:41:35;;;;;;;3.47;1.20;;;;;;;-141.84;74.52;19322.03;4962149;28;20224;-63
2023/11/08 08:44:06;;;;;;;3.23;1.37;;;;;;;-141.84;74.03;19346.44;4981768;28;20274;-65
2023/11/08 08:46:34;;;;;;;2.07;1.20;;;;;;;-141.84;73.47;19366.75;4982325;28;20281;-66
2023/11/08 08:49:03;;;;;;;3.10;1.10;;;;;;;-141.84;72.54;19378.94;4970943;28;20235;-65
2023/11/08 08:51:32;;;;;;;2.53;1.10;;;;;;;-141.84;71.29;19370.81;4974560;28;20235;-63
2023/11/08 08:54:00;;;;;;;2.77;1.30;;;;;;;-141.84;71.15;19368.78;4978825;28;20204;-63
2023/11/08 08:56:29;;;;;;;2.97;1.23;;;;;;;-141.84;71.23;19360.66;4962715;28;20336;-63
2023/11/08 08:58:57;;;;;;;2.13;1.10;;;;;;;-141.84;71.65;19338.28;4966086;28;20255;-63
2023/11/08 09:01:27;;;;;;;1.70;1.60;;;;;;;-141.84;71.96;19370.81;4981589;28;20247;-65
2023/11/08 09:03:56;;;;;;;3.83;1.20;;;;;;;-141.84;71.92;19309.84;4968509;28;20298;-62
2023/11/08 09:06:28;;;;;;;3.27;1.43;;;;;;;-141.84;72.94;19350.50;4965565;28;20220;-62
2023/11/08 09:09:18;;;;;;;2.17;1.00;;;;;;;-141.84;71.72;19393.16;4974069;28;20199;-61
2023/11/08 09:11:46;;;;;;;1.87;1.10;;;;;;;-141.84;70.97;19374.88;4970378;28;20304;-62
2023/11/08 09:14:15;;;;;;;2.43;1.23;;;;;;;-141.84;69.10;19439.91;4980538;28;20330;-63
2023/11/08 09:16:45;;;;;;;1.83;1.00;;;;;;;-141.84;67.71;19401.28;4991598;28;20227;-64
2023/11/08 09:19:13;;;;;;;3.07;1.30;;;;;;;-141.84;68.26;19413.47;4991455;28;20741;-62
2023/11/08 09:21:43;;;;;;;2.97;1.00;;;;;;;-141.84;69.28;19366.75;4991130;28;20582;-65
2023/11/08 09:24:12;;;;;;;3.97;1.10;;;;;;;-141.84;68.84;19376.91;4982887;28;20484;-62
2023/11/08 09:26:41;;;;;;;1.60;1.00;;;;;;;-141.84;69.80;19376.91;4984852;28;20200;-62
2023/11/08 09:29:12;;;;;;;2.83;1.00;;;;;;;-141.84;69.80;19354.56;4979619;28;20289;-63
2023/11/08 09:31:40;;;;;;;2.97;0.80;;;;;;;-141.84;69.12;19378.94;4984944;28;20236;-62
2023/11/08 09:34:11;;;;;;;2.40;1.03;;;;;;;-141.84;68.96;19374.88;4983764;28;20201;-62
2023/11/08 09:36:44;;;;;;;3.47;1.10;;;;;;;-141.84;67.75;19405.34;4974648;28;20231;-60
2023/11/08 09:39:13;;;;;;;2.50;1.10;;;;;;;-141.84;68.60;19393.16;4972487;28;20211;-66
2023/11/08 09:41:42;;;;;;;2.40;1.10;;;;;;;-141.84;68.31;19362.69;4966223;28;20271;-65
2023/11/08 09:44:13;;;;;;;1.50;0.90;;;;;;;-141.84;68.59;19370.81;4981578;28;20310;-61
2023/11/08 09:46:43;;;;;;;1.87;1.10;;;;;;;-141.84;69.09;19397.22;4984842;28;20335;-62
2023/11/08 09:49:13;;;;;;;1.20;0.87;;;;;;;-141.84;69.90;19374.88;4972120;28;20231;-62
2023/11/08 09:51:42;;;;;;;3.03;1.47;;;;;;;-141.84;70.27;19401.28;4985124;28;20298;-63
2023/11/08 09:54:24;;;;;;;1.67;0.90;;;;;;;-141.84;70.33;19387.06;4983777;28;20218;-63
2023/11/08 09:56:53;;;;;;;2.10;0.93;;;;;;;-141.84;69.58;19395.19;4985066;28;20243;-61
2023/11/08 09:59:32;;;;;;;2.57;1.13;;;;;;;-141.84;67.61;19407.38;4985426;28;20277;-62
2023/11/08 10:02:07;;;;;;;1.97;1.10;;;;;;;-141.84;66.57;19433.81;4985382;28;20318;-61
2023/11/08 10:04:38;;;;;;;2.17;1.10;;;;;;;-141.84;66.77;19439.91;4979653;28;20234;-63
2023/11/08 10:07:15;;;;;;;3.23;1.20;;;;;;;-141.84;67.33;19419.59;4985507;28;20285;-62
2023/11/08 10:09:44;;;;;;;2.03;1.30;;;;;;;-141.84;67.99;19397.22;4984395;28;20679;-62
2023/11/08 10:12:12;;;;;;;2.20;1.27;;;;;;;-141.84;67.79;19395.19;4977848;28;20214;-65
2023/11/08 10:14:44;;;;;;;1.70;0.97;;;;;;;-141.84;67.61;19437.88;4985067;28;20302;-64
2023/11/08 10:17:13;;;;;;;3.43;1.37;;;;;;;-141.84;65.31;19480.53;4975342;28;20239;-64
2023/11/08 10:20:07;;;;;;;4.10;1.20;;;;;;;-141.84;64.80;19454.13;4965131;28;20389;-64
2023/11/08 10:22:37;;;;;;;2.77;1.20;;;;;;;-141.84;63.88;19490.72;4962113;28;20235;-62
2023/11/08 10:25:08;;;;;;;3.17;1.50;;;;;;;-141.84;64.16;19456.16;4977558;28;20262;-61
2023/11/08 10:28:01;;;;;;;2.10;1.07;;;;;;;-141.84;64.85;19450.06;4984772;28;20210;-67
2023/11/08 10:30:33;;;;;;;2.90;1.00;;;;;;;-141.84;65.28;19443.97;4976895;28;20245;-64
2023/11/08 10:33:08;;;;;;;2.20;1.30;;;;;;;-141.84;66.40;19415.50;4985063;28;20231;-61
2023/11/08 10:35:39;;;;;;;1.87;1.33;;;;;;;-141.84;66.93;19364.72;4984037;28;20314;-67
2023/11/08 10:38:10;;;;;;;2.50;1.30;;;;;;;-141.84;67.01;19374.88;4972086;28;20754;-65
2023/11/08 10:40:40;;;;;;;1.80;0.90;;;;;;;-141.84;66.76;19433.81;4965167;28;20322;-66
2023/11/08 10:43:09;;;;;;;2.00;1.00;;;;;;;-141.84;66.00;19470.38;4974396;28;20248;-63
2023/11/08 10:45:37;;;;;;;1.77;1.23;;;;;;;-141.84;64.76;19415.50;4984399;28;20235;-65
2023/11/08 10:48:07;;;;;;;2.87;1.27;;;;;;;-141.84;64.46;19452.09;4984682;28;20290;-64
2023/11/08 10:50:39;;;;;;;2.30;1.10;;;;;;;-141.84;64.10;19456.16;4978594;28;20235;-62
2023/11/08 10:53:07;;;;;;;1.13;0.85;;;;;;;-141.84;63.09;19439.91;4984082;28;20304;-65
2023/11/08 10:55:36;;;;;;;2.63;1.20;;;;;;;-141.84;63.21;19435.84;4974016;28;20223;-65
2023/11/08 10:58:06;;;;;;;2.72;1.20;;;;;;;-141.84;63.52;19443.97;4977213;28;20249;-66
2023/11/08 11:00:36;;;;;;;2.10;1.10;;;;;;;-141.84;63.32;19464.28;4957167;28;20611;-65
2023/11/08 11:03:09;;;;;;;1.17;0.90;;;;;;;-141.84;62.87;19480.53;4965565;28;20266;-66
2023/11/08 11:05:43;;;;;;;3.57;1.03;;;;;;;-141.84;61.81;19427.72;4964732;28;20233;-65
2023/11/08 11:08:18;;;;;;;1.65;0.90;;;;;;;-141.84;60.92;19525.25;4961530;28;20219;-65
2023/11/08 11:10:48;;;;;;;1.10;1.00;;;;;;;-141.84;60.62;19476.47;4983872;28;20230;-68
2023/11/08 11:13:26;;;;;;;1.77;1.38;;;;;;;-141.84;61.01;19521.19;4983338;28;20651;-68
2023/11/08 11:16:09;;;;;;;3.73;1.20;;;;;;;-141.84;62.20;19498.84;4979424;28;20283;-67
2023/11/08 11:19:12;;;;;;;1.67;1.00;;;;;;;-141.84;61.22;19509.00;4964592;28;20236;-64
2023/11/08 11:21:44;;;;;;;2.88;1.02;;;;;;;-141.84;61.31;19509.00;4965905;28;20219;-65
2023/11/08 11:24:39;;;;;;;2.88;1.35;;;;;;;-141.84;59.91;19537.44;4972688;28;20203;-65
2023/11/08 11:27:10;;;;;;;2.70;1.10;;;;;;;-141.84;60.56;19529.31;4972444;28;20232;-64
2023/11/08 11:29:41;;;;;;;2.90;1.10;;;;;;;-141.84;60.49;19523.22;4979211;28;20235;-65
2023/11/08 11:32:33;;;;;;;2.17;1.10;;;;;;;-141.84;61.16;19521.19;4965857;28;20247;-65
2023/11/08 11:35:03;;;;;;;2.00;1.10;;;;;;;-141.84;61.63;19539.47;4965939;28;20232;-65